createdAt,value
2018-05-14T00:01:34.749Z,24.56
2018-05-14T00:04:00.897Z,24.55
2018-05-14T00:06:27.030Z,24.54
2018-05-14T00:08:53.238Z,24.53
2018-05-14T00:11:19.702Z,24.51
2018-05-14T00:13:46.135Z,24.49
2018-05-14T00:16:12.363Z,24.48
2018-05-14T00:18:38.638Z,24.45
2018-05-14T00:21:04.768Z,24.44
2018-05-14T00:23:30.937Z,24.42
2018-05-14T00:25:57.109Z,24.40
2018-05-14T00:28:23.329Z,24.40
2018-05-14T00:30:49.613Z,24.42
2018-05-14T00:33:15.753Z,24.42
2018-05-14T00:35:41.884Z,24.43
2018-05-14T00:38:08.057Z,24.41
2018-05-14T00:40:34.202Z,24.41
2018-05-14T00:43:00.486Z,24.41
2018-05-14T00:45:26.894Z,24.39
2018-05-14T00:47:53.291Z,24.37
2018-05-14T00:50:19.489Z,24.35
2018-05-14T00:52:45.620Z,24.35
2018-05-14T00:55:17.274Z,24.34
2018-05-14T00:57:43.426Z,24.32
2018-05-14T01:00:09.897Z,24.31
2018-05-14T01:02:36.429Z,24.29
2018-05-14T01:05:02.608Z,24.28
2018-05-14T01:07:28.742Z,24.27
2018-05-14T01:09:54.904Z,24.27
2018-05-14T01:12:21.042Z,24.26
2018-05-14T01:14:47.219Z,24.24
2018-05-14T01:17:13.356Z,24.25
2018-05-14T01:19:39.970Z,24.23
2018-05-14T01:22:06.114Z,24.23
2018-05-14T01:24:32.281Z,24.20
2018-05-14T01:26:58.551Z,24.18
2018-05-14T01:29:24.684Z,24.17
2018-05-14T01:31:50.819Z,24.15
2018-05-14T01:34:17.106Z,24.16
2018-05-14T01:36:43.238Z,24.18
2018-05-14T01:39:09.361Z,24.19
2018-05-14T01:41:35.525Z,24.17
2018-05-14T01:44:01.695Z,24.15
2018-05-14T01:46:27.841Z,24.15
2018-05-14T01:48:54.310Z,24.14
2018-05-14T01:51:20.449Z,24.12
2018-05-14T01:53:46.595Z,24.13
2018-05-14T01:56:12.881Z,24.12
2018-05-14T01:58:39.014Z,24.10
2018-05-14T02:01:05.147Z,24.09
2018-05-14T02:03:31.319Z,24.08
2018-05-14T02:05:57.848Z,24.07
2018-05-14T02:08:23.983Z,24.05
2018-05-14T02:10:50.154Z,24.03
2018-05-14T02:13:16.327Z,24.02
2018-05-14T02:15:43.176Z,24.02
2018-05-14T02:18:09.604Z,24.01
2018-05-14T02:20:35.739Z,24.00
2018-05-14T02:23:01.894Z,23.98
2018-05-14T02:25:28.042Z,23.98
2018-05-14T02:27:54.202Z,23.96
2018-05-14T02:30:20.642Z,23.94
2018-05-14T02:32:46.853Z,23.94
2018-05-14T02:35:13.006Z,23.92
2018-05-14T02:37:39.179Z,23.90
2018-05-14T02:40:05.385Z,23.88
2018-05-14T02:42:31.537Z,23.87
2018-05-14T02:44:57.680Z,23.86
2018-05-14T02:47:23.967Z,23.82
2018-05-14T02:49:50.098Z,23.78
2018-05-14T02:52:16.235Z,23.75
2018-05-14T02:54:43.132Z,23.72
2018-05-14T02:57:09.266Z,23.70
2018-05-14T02:59:35.690Z,23.68
2018-05-14T03:02:02.121Z,23.67
2018-05-14T03:04:29.064Z,23.65
2018-05-14T03:06:55.601Z,23.67
2018-05-14T03:09:21.732Z,23.69
2018-05-14T03:11:47.942Z,23.69
2018-05-14T03:14:14.080Z,23.68
2018-05-14T03:16:40.289Z,23.67
2018-05-14T03:19:06.499Z,23.67
2018-05-14T03:21:32.973Z,23.67
2018-05-14T03:23:59.401Z,23.64
2018-05-14T03:26:27.916Z,23.65
2018-05-14T03:29:00.979Z,23.68
2018-05-14T03:31:27.258Z,23.70
2018-05-14T03:33:53.401Z,23.70
2018-05-14T03:36:19.545Z,23.70
2018-05-14T03:38:45.713Z,23.69
2018-05-14T03:41:11.858Z,23.68
2018-05-14T03:43:38.481Z,23.67
2018-05-14T03:46:04.644Z,23.65
2018-05-14T03:48:30.823Z,23.63
2018-05-14T03:50:57.353Z,23.59
2018-05-14T03:53:23.570Z,23.58
2018-05-14T03:55:49.721Z,23.57
2018-05-14T03:58:28.216Z,23.55
2018-05-14T04:01:06.457Z,23.55
2018-05-14T04:03:44.656Z,23.54
2018-05-14T04:06:23.044Z,23.53
2018-05-14T04:08:49.241Z,23.42
2018-05-14T04:11:15.389Z,23.17
2018-05-14T04:13:41.598Z,23.08
2018-05-14T04:16:07.747Z,22.96
2018-05-14T04:18:34.040Z,22.96
2018-05-14T04:21:00.216Z,22.96
2018-05-14T04:23:26.432Z,22.94
2018-05-14T04:25:52.631Z,22.85
2018-05-14T04:28:18.806Z,22.78
2018-05-14T04:30:45.017Z,22.79
2018-05-14T04:33:11.156Z,22.66
2018-05-14T04:35:37.309Z,22.57
2018-05-14T04:38:03.494Z,22.51
2018-05-14T04:40:29.643Z,22.47
2018-05-14T04:42:55.847Z,22.57
2018-05-14T04:45:22.079Z,22.58
2018-05-14T04:47:48.247Z,22.54
2018-05-14T04:50:14.411Z,22.64
2018-05-14T04:52:40.590Z,22.61
2018-05-14T04:55:06.766Z,22.57
2018-05-14T04:57:33.057Z,22.61
2018-05-14T04:59:59.214Z,22.58
2018-05-14T05:02:25.361Z,22.65
2018-05-14T05:04:51.563Z,22.61
2018-05-14T05:07:17.718Z,22.59
2018-05-14T05:09:44.011Z,22.66
2018-05-14T05:12:10.178Z,22.66
2018-05-14T05:14:36.326Z,22.68
2018-05-14T05:17:02.535Z,22.73
2018-05-14T05:19:28.689Z,22.74
2018-05-14T05:21:54.914Z,22.70
2018-05-14T05:24:21.061Z,22.72
2018-05-14T05:26:47.492Z,22.59
2018-05-14T05:29:13.637Z,22.50
2018-05-14T05:31:39.808Z,22.46
2018-05-14T05:34:06.025Z,22.46
2018-05-14T05:36:32.179Z,22.48
2018-05-14T05:38:58.324Z,22.46
2018-05-14T05:41:24.559Z,22.50
2018-05-14T05:43:50.713Z,22.42
2018-05-14T05:46:16.893Z,22.52
2018-05-14T05:48:43.110Z,22.47
2018-05-14T05:51:09.286Z,22.41
2018-05-14T05:53:35.523Z,22.44
2018-05-14T05:56:01.735Z,22.51
2018-05-14T05:58:27.915Z,22.53
2018-05-14T06:00:54.072Z,22.63
2018-05-14T06:03:20.251Z,22.60
2018-05-14T06:05:46.429Z,22.60
2018-05-14T06:08:12.633Z,22.54
2018-05-14T06:10:38.952Z,22.66
2018-05-14T06:13:05.146Z,22.80
2018-05-14T06:15:31.375Z,22.86
2018-05-14T06:17:57.534Z,22.97
2018-05-14T06:20:23.738Z,22.97
2018-05-14T06:22:50.269Z,23.07
2018-05-14T06:25:16.870Z,23.01
2018-05-14T06:27:43.140Z,22.99
2018-05-14T06:30:09.676Z,22.97
2018-05-14T06:32:35.835Z,22.99
2018-05-14T06:35:02.047Z,23.08
2018-05-14T06:37:28.194Z,23.13
2018-05-14T06:39:54.389Z,23.10
2018-05-14T06:42:20.574Z,23.05
2018-05-14T06:44:46.827Z,23.05
2018-05-14T06:47:12.971Z,23.06
2018-05-14T06:49:39.142Z,23.12
2018-05-14T06:52:05.315Z,23.10
2018-05-14T06:54:31.618Z,23.11
2018-05-14T06:56:57.770Z,23.14
2018-05-14T06:59:23.945Z,23.21
2018-05-14T07:01:50.122Z,23.21
2018-05-14T07:04:16.298Z,23.27
2018-05-14T07:06:42.490Z,23.28
2018-05-14T07:09:08.661Z,23.33
2018-05-14T07:11:35.186Z,23.38
2018-05-14T07:14:08.514Z,23.39
2018-05-14T07:16:34.973Z,23.45
2018-05-14T07:19:01.128Z,23.52
2018-05-14T07:21:27.580Z,23.51
2018-05-14T07:23:53.739Z,23.47
2018-05-14T07:26:19.880Z,23.52
2018-05-14T07:28:46.075Z,23.48
2018-05-14T07:31:12.320Z,23.53
2018-05-14T07:33:38.477Z,23.50
2018-05-14T07:36:04.805Z,23.51
2018-05-14T07:38:30.947Z,23.51
2018-05-14T07:40:57.130Z,23.52
2018-05-14T07:43:23.325Z,23.53
2018-05-14T07:45:49.470Z,23.60
2018-05-14T07:48:15.773Z,23.59
2018-05-14T07:50:41.923Z,23.56
2018-05-14T07:53:08.079Z,23.64
2018-05-14T07:55:34.264Z,23.71
2018-05-14T07:58:00.422Z,23.73
2018-05-14T08:00:26.638Z,23.77
2018-05-14T08:02:52.790Z,23.77
2018-05-14T08:05:19.137Z,23.79
2018-05-14T08:07:45.371Z,23.79
2018-05-14T08:10:11.518Z,23.86
2018-05-14T08:12:37.690Z,23.86
2018-05-14T08:15:03.871Z,23.85
2018-05-14T08:17:30.037Z,23.87
2018-05-14T08:19:56.177Z,23.89
2018-05-14T08:22:22.581Z,23.93
2018-05-14T08:24:48.731Z,23.95
2018-05-14T08:27:14.926Z,23.95
2018-05-14T08:29:41.131Z,24.00
2018-05-14T08:32:07.372Z,23.98
2018-05-14T08:34:33.602Z,23.99
2018-05-14T08:36:59.803Z,24.04
2018-05-14T08:39:26.043Z,24.05
2018-05-14T08:41:52.212Z,24.09
2018-05-14T08:44:18.454Z,24.14
2018-05-14T08:46:44.700Z,24.14
2018-05-14T08:49:10.952Z,24.18
2018-05-14T08:51:37.284Z,24.21
2018-05-14T08:54:03.564Z,24.21
2018-05-14T08:56:29.905Z,24.24
2018-05-14T08:58:56.084Z,24.28
2018-05-14T09:01:22.269Z,24.30
2018-05-14T09:03:48.463Z,24.32
2018-05-14T09:06:14.626Z,24.37
2018-05-14T09:08:40.902Z,24.41
2018-05-14T09:11:07.046Z,24.41
2018-05-14T09:13:33.240Z,24.43
2018-05-14T09:15:59.439Z,24.45
2018-05-14T09:18:25.646Z,24.48
2018-05-14T09:20:51.802Z,24.51
2018-05-14T09:23:18.008Z,24.55
2018-05-14T09:25:44.166Z,24.58
2018-05-14T09:28:10.311Z,24.60
2018-05-14T09:30:36.482Z,24.61
2018-05-14T09:33:02.626Z,24.63
2018-05-14T09:35:29.053Z,24.63
2018-05-14T09:37:55.212Z,24.65
2018-05-14T09:40:21.630Z,24.66
2018-05-14T09:42:47.829Z,24.71
2018-05-14T09:45:14.063Z,24.75
2018-05-14T09:47:40.262Z,24.77
2018-05-14T09:50:06.470Z,24.81
2018-05-14T09:52:33.103Z,24.83
2018-05-14T09:54:59.268Z,24.85
2018-05-14T09:57:25.602Z,24.87
2018-05-14T09:59:51.841Z,24.90
2018-05-14T10:02:18.075Z,24.92
2018-05-14T10:04:44.240Z,24.97
2018-05-14T10:09:43.139Z,25.09
2018-05-14T10:12:09.459Z,25.13
2018-05-14T10:14:35.782Z,25.16
2018-05-14T10:17:01.964Z,25.21
2018-05-14T10:19:28.232Z,25.24
2018-05-14T10:21:54.384Z,25.23
2018-05-14T10:24:20.570Z,25.27
2018-05-14T10:26:47.007Z,25.26
2018-05-14T10:29:13.222Z,25.25
2018-05-14T10:31:39.456Z,25.23
2018-05-14T10:34:05.605Z,25.27
2018-05-14T10:36:31.837Z,25.32
2018-05-14T10:38:57.988Z,25.37
2018-05-14T10:41:24.210Z,25.42
2018-05-14T10:43:50.389Z,25.46
2018-05-14T10:46:16.530Z,25.51
2018-05-14T10:48:42.744Z,25.55
2018-05-14T10:51:08.881Z,25.59
2018-05-14T10:53:35.026Z,25.62
2018-05-14T10:56:01.207Z,25.66
2018-05-14T10:58:27.421Z,25.69
2018-05-14T11:00:53.598Z,25.73
2018-05-14T11:03:19.740Z,25.78
2018-05-14T11:05:45.923Z,25.82
2018-05-14T11:08:12.062Z,25.81
2018-05-14T11:10:38.344Z,25.82
2018-05-14T11:13:04.422Z,25.85
2018-05-14T11:15:30.630Z,25.85
2018-05-14T11:17:56.777Z,25.84
2018-05-14T11:20:24.457Z,25.88
2018-05-14T11:22:52.503Z,25.95
2018-05-14T11:25:20.703Z,26.02
2018-05-14T11:27:46.887Z,26.04
2018-05-14T11:30:13.161Z,26.04
2018-05-14T11:32:39.299Z,26.10
2018-05-14T11:35:05.445Z,26.12
2018-05-14T11:37:31.626Z,26.17
2018-05-14T11:39:57.829Z,26.22
2018-05-14T11:42:24.135Z,26.29
2018-05-14T11:44:50.276Z,26.34
2018-05-14T11:47:16.422Z,26.37
2018-05-14T11:49:42.603Z,26.40
2018-05-14T11:52:08.740Z,26.42
2018-05-14T11:54:35.322Z,26.46
2018-05-14T11:57:01.526Z,26.48
2018-05-14T11:59:27.684Z,26.52
2018-05-14T12:01:54.309Z,26.54
2018-05-14T12:04:20.460Z,26.55
2018-05-14T12:06:46.613Z,26.58
2018-05-14T12:09:12.794Z,26.57
2018-05-14T12:11:38.963Z,26.57
2018-05-14T12:14:05.487Z,26.59
2018-05-14T12:16:31.667Z,26.64
2018-05-14T12:18:57.873Z,26.69
2018-05-14T12:21:24.094Z,26.73
2018-05-14T12:23:50.254Z,26.75
2018-05-14T12:26:16.444Z,26.78
2018-05-14T12:28:43.309Z,26.78
2018-05-14T12:31:09.467Z,26.79
2018-05-14T12:33:35.649Z,26.82
2018-05-14T12:36:01.843Z,26.86
2018-05-14T12:38:27.996Z,26.90
2018-05-14T12:40:54.211Z,26.95
2018-05-14T12:43:22.712Z,26.99
2018-05-14T12:45:49.286Z,27.03
2018-05-14T12:48:15.460Z,27.05
2018-05-14T12:50:41.622Z,27.09
2018-05-14T12:53:07.782Z,27.12
2018-05-14T12:55:33.934Z,27.12
2018-05-14T12:58:00.317Z,27.11
2018-05-14T13:00:26.604Z,27.12
2018-05-14T13:02:52.981Z,27.13
2018-05-14T13:05:19.139Z,27.16
2018-05-14T13:07:45.501Z,27.17
2018-05-14T13:10:11.621Z,27.19
2018-05-14T13:12:37.997Z,27.21
2018-05-14T13:15:04.184Z,27.23
2018-05-14T13:17:30.402Z,27.23
2018-05-14T13:19:56.718Z,27.25
2018-05-14T13:22:23.132Z,27.28
2018-05-14T13:24:49.304Z,27.29
2018-05-14T13:27:15.495Z,27.31
2018-05-14T13:29:41.689Z,27.31
2018-05-14T13:32:07.938Z,27.32
2018-05-14T13:34:34.042Z,27.33
2018-05-14T13:37:00.304Z,27.36
2018-05-14T13:39:26.465Z,27.40
2018-05-14T13:41:52.629Z,27.41
2018-05-14T13:44:19.148Z,27.41
2018-05-14T13:46:45.502Z,27.42
2018-05-14T13:49:11.886Z,27.44
2018-05-14T13:51:38.066Z,27.45
2018-05-14T13:54:04.486Z,27.47
2018-05-14T13:56:30.677Z,27.50
2018-05-14T13:58:56.836Z,27.52
2018-05-14T14:01:23.142Z,27.55
2018-05-14T14:03:49.301Z,27.56
2018-05-14T14:06:15.733Z,27.59
2018-05-14T14:08:41.909Z,27.61
2018-05-14T14:11:08.054Z,27.65
2018-05-14T14:13:34.224Z,27.68
2018-05-14T14:16:00.383Z,27.72
2018-05-14T14:18:26.943Z,27.77
2018-05-14T14:20:53.099Z,27.83
2018-05-14T14:23:19.299Z,27.89
2018-05-14T14:25:45.487Z,27.99
2018-05-14T14:28:11.665Z,28.11
2018-05-14T14:30:37.968Z,28.38
2018-05-14T14:33:04.189Z,29.59
2018-05-14T14:35:30.567Z,31.40
2018-05-14T14:37:56.977Z,32.52
2018-05-14T14:40:23.137Z,33.09
2018-05-14T14:42:49.353Z,33.44
2018-05-14T14:45:15.507Z,33.67
2018-05-14T14:47:41.791Z,33.78
2018-05-14T14:50:07.955Z,33.90
2018-05-14T14:52:34.093Z,33.99
2018-05-14T14:55:00.735Z,34.05
2018-05-14T14:57:26.881Z,34.05
2018-05-14T14:59:53.044Z,33.06
2018-05-14T15:02:19.470Z,31.56
2018-05-14T15:04:45.631Z,31.09
2018-05-14T15:07:11.794Z,30.41
2018-05-14T15:09:38.210Z,29.77
2018-05-14T15:12:04.357Z,29.17
2018-05-14T15:14:30.794Z,28.86
2018-05-14T15:16:56.943Z,28.73
2018-05-14T15:19:23.477Z,28.80
2018-05-14T15:21:49.647Z,28.84
2018-05-14T15:24:15.858Z,28.83
2018-05-14T15:26:42.018Z,28.90
2018-05-14T15:29:08.164Z,28.97
2018-05-14T15:31:34.370Z,28.84
2018-05-14T15:34:00.535Z,28.73
2018-05-14T15:36:26.710Z,28.65
2018-05-14T15:38:52.910Z,28.64
2018-05-14T15:41:19.158Z,28.81
2018-05-14T15:43:45.283Z,28.76
2018-05-14T15:46:11.460Z,28.67
2018-05-14T15:48:37.613Z,28.53
2018-05-14T15:51:03.776Z,28.42
2018-05-14T15:53:30.353Z,28.34
2018-05-14T15:55:56.520Z,28.30
2018-05-14T15:58:22.677Z,28.29
2018-05-14T16:00:48.862Z,28.25
2018-05-14T16:03:15.016Z,28.18
2018-05-14T16:05:41.230Z,28.17
2018-05-14T16:08:07.511Z,28.18
2018-05-14T16:10:33.888Z,28.19
2018-05-14T16:13:00.042Z,28.14
2018-05-14T16:15:26.625Z,28.03
2018-05-14T16:17:53.757Z,27.86
2018-05-14T16:20:22.307Z,27.83
2018-05-14T16:22:48.532Z,27.96
2018-05-14T16:25:14.739Z,27.96
2018-05-14T16:27:40.885Z,28.05
2018-05-14T16:30:07.040Z,28.02
2018-05-14T16:32:33.359Z,28.01
2018-05-14T16:34:59.605Z,28.08
2018-05-14T16:37:25.761Z,28.08
2018-05-14T16:39:51.948Z,28.16
2018-05-14T16:42:18.107Z,28.21
2018-05-14T16:44:44.276Z,28.37
2018-05-14T16:53:03.997Z,28.96
2018-05-14T16:55:30.156Z,28.98
2018-05-14T16:57:56.452Z,29.02
2018-05-14T17:00:23.018Z,29.00
2018-05-14T17:02:50.709Z,28.96
2018-05-14T17:05:17.170Z,28.96
2018-05-14T17:07:43.861Z,29.03
2018-05-14T17:10:10.015Z,29.21
2018-05-14T17:12:36.161Z,29.34
2018-05-14T17:15:02.497Z,29.43
2018-05-14T17:17:28.682Z,29.47
2018-05-14T17:19:54.908Z,29.48
2018-05-14T17:22:23.272Z,29.50
2018-05-14T17:24:49.627Z,29.54
2018-05-14T17:27:15.785Z,29.57
2018-05-14T17:29:41.916Z,29.58
2018-05-14T17:32:08.515Z,29.60
2018-05-14T17:34:34.946Z,29.58
2018-05-14T17:37:01.105Z,29.57
2018-05-14T17:39:27.304Z,29.59
2018-05-14T17:41:53.445Z,29.58
2018-05-14T17:44:19.589Z,29.57
2018-05-14T17:46:45.760Z,29.55
2018-05-14T17:49:12.449Z,29.52
2018-05-14T17:51:38.589Z,29.48
2018-05-14T17:54:04.748Z,29.44
2018-05-14T17:56:30.994Z,29.40
2018-05-14T17:58:57.169Z,29.34
2018-05-14T18:01:23.326Z,29.18
2018-05-14T18:03:49.503Z,29.07
2018-05-14T18:06:15.637Z,29.01
2018-05-14T18:08:42.040Z,28.91
2018-05-14T18:11:08.325Z,28.81
2018-05-14T18:13:34.938Z,28.74
2018-05-14T18:16:01.068Z,28.68
2018-05-14T18:18:27.234Z,28.59
2018-05-14T18:20:53.441Z,28.54
2018-05-14T18:23:22.497Z,28.44
2018-05-14T18:25:54.892Z,28.38
2018-05-14T18:28:21.078Z,28.33
2018-05-14T18:30:47.229Z,28.29
2018-05-14T18:33:13.452Z,28.21
2018-05-14T18:35:43.533Z,28.14
2018-05-14T18:38:09.709Z,28.06
2018-05-14T18:40:36.137Z,27.95
2018-05-14T18:43:02.298Z,27.87
2018-05-14T18:45:28.441Z,27.79
2018-05-14T18:47:54.646Z,27.71
2018-05-14T18:50:20.792Z,27.63
2018-05-14T18:52:46.951Z,27.52
2018-05-14T18:55:14.532Z,27.40
2018-05-14T18:57:40.674Z,27.25
2018-05-14T19:00:06.894Z,27.08
2018-05-14T19:02:33.021Z,27.01
2018-05-14T19:04:59.172Z,26.88
2018-05-14T19:07:25.339Z,26.79
2018-05-14T19:09:51.481Z,26.65
2018-05-14T19:12:17.754Z,26.67
2018-05-14T19:14:49.988Z,26.72
2018-05-14T19:17:22.410Z,26.74
2018-05-14T19:19:48.554Z,26.74
2018-05-14T19:22:20.733Z,26.70
2018-05-14T19:24:46.936Z,26.66
2018-05-14T19:27:13.074Z,26.62
2018-05-14T19:29:39.248Z,26.60
2018-05-14T19:32:05.432Z,26.57
2018-05-14T19:34:37.710Z,26.54
2018-05-14T19:37:03.851Z,26.49
2018-05-14T19:39:36.156Z,26.48
2018-05-14T19:42:03.747Z,26.45
2018-05-14T19:44:30.194Z,26.42
2018-05-14T19:46:56.367Z,26.39
2018-05-14T19:49:22.531Z,26.36
2018-05-14T19:51:48.692Z,26.34
2018-05-14T19:54:14.929Z,26.30
2018-05-14T19:56:41.149Z,26.30
2018-05-14T19:59:07.290Z,26.29
2018-05-14T20:01:33.425Z,26.25
2018-05-14T20:03:59.617Z,26.23
2018-05-14T20:06:26.181Z,26.21
2018-05-14T20:08:52.577Z,26.20
2018-05-14T20:11:18.714Z,26.17
2018-05-14T20:13:45.111Z,26.15
2018-05-14T20:16:11.263Z,26.13
2018-05-14T20:18:37.434Z,26.12
2018-05-14T20:21:03.611Z,26.10
2018-05-14T20:23:29.819Z,26.07
2018-05-14T20:25:55.989Z,26.04
2018-05-14T20:28:22.248Z,26.01
2018-05-14T20:30:48.383Z,25.99
2018-05-14T20:33:14.518Z,25.96
2018-05-14T20:35:40.802Z,25.94
2018-05-14T20:38:06.943Z,25.93
2018-05-14T20:40:33.339Z,25.89
2018-05-14T20:42:59.972Z,25.88
2018-05-14T20:45:26.132Z,25.87
2018-05-14T20:47:52.265Z,25.83
2018-05-14T20:50:18.431Z,25.83
2018-05-14T20:52:44.588Z,25.81
2018-05-14T20:55:11.014Z,25.79
2018-05-14T20:57:37.183Z,25.76
2018-05-14T21:00:03.386Z,25.74
2018-05-14T21:02:29.547Z,25.72
2018-05-14T21:04:55.677Z,25.69
2018-05-14T21:07:22.195Z,25.67
2018-05-14T21:09:48.317Z,25.64
2018-05-14T21:12:14.445Z,25.62
2018-05-14T21:14:40.640Z,25.60
2018-05-14T21:17:07.063Z,25.58
2018-05-14T21:19:33.226Z,25.56
2018-05-14T21:21:59.357Z,25.55
2018-05-14T21:24:25.558Z,25.52
2018-05-14T21:26:51.849Z,25.47
2018-05-14T21:29:18.309Z,25.44
2018-05-14T21:31:44.739Z,25.43
2018-05-14T21:34:10.989Z,25.40
2018-05-14T21:36:37.171Z,25.40
2018-05-14T21:39:03.732Z,25.42
2018-05-14T21:41:29.857Z,25.45
2018-05-14T21:43:56.013Z,25.45
2018-05-14T21:46:22.420Z,25.44
2018-05-14T21:48:48.582Z,25.43
2018-05-14T21:51:14.704Z,25.41
2018-05-14T21:53:40.964Z,25.40
2018-05-14T21:56:07.090Z,25.40
2018-05-14T21:58:33.228Z,25.41
2018-05-14T22:00:59.396Z,25.41
2018-05-14T22:03:25.526Z,25.40
2018-05-14T22:05:52.475Z,25.38
2018-05-14T22:08:18.738Z,25.38
2018-05-14T22:10:44.857Z,25.37
2018-05-14T22:13:10.982Z,25.33
2018-05-14T22:15:37.562Z,25.28
2018-05-14T22:18:03.700Z,25.28
2018-05-14T22:20:29.838Z,25.26
2018-05-14T22:22:56.658Z,25.24
2018-05-14T22:25:22.839Z,25.23
2018-05-14T22:27:48.969Z,25.21
2018-05-14T22:30:15.121Z,25.21
2018-05-14T22:32:41.272Z,25.21
2018-05-14T22:35:07.432Z,25.21
2018-05-14T22:37:33.818Z,25.21
2018-05-14T22:39:59.944Z,25.21
2018-05-14T22:42:26.215Z,25.20
2018-05-14T22:44:52.329Z,25.20
2018-05-14T22:47:18.448Z,25.19
2018-05-14T22:49:44.607Z,25.19
2018-05-14T22:52:10.738Z,25.18
2018-05-14T22:54:36.893Z,25.18
2018-05-14T22:57:03.335Z,25.15
2018-05-14T22:59:29.497Z,25.14
2018-05-14T23:01:55.645Z,25.11
2018-05-14T23:04:22.125Z,25.12
2018-05-14T23:06:48.288Z,25.14
2018-05-14T23:09:14.413Z,25.12
2018-05-14T23:11:40.550Z,25.13
2018-05-14T23:14:06.786Z,25.11
2018-05-14T23:16:32.943Z,25.10
2018-05-14T23:18:59.150Z,25.10
2018-05-14T23:21:25.621Z,25.08
2018-05-14T23:23:51.740Z,25.07
2018-05-14T23:26:18.141Z,25.05
2018-05-14T23:28:44.280Z,25.04
2018-05-14T23:31:10.412Z,25.02
2018-05-14T23:33:36.560Z,25.01
2018-05-14T23:36:02.712Z,25.00
2018-05-14T23:38:29.117Z,24.99
2018-05-14T23:40:55.296Z,24.98
2018-05-14T23:43:21.430Z,24.97
2018-05-14T23:45:47.572Z,24.96
2018-05-14T23:48:20.682Z,24.95
2018-05-14T23:50:46.813Z,24.94
2018-05-14T23:53:13.339Z,24.93
2018-05-14T23:55:39.773Z,24.93
2018-05-14T23:58:05.900Z,24.90
